sensor_id;sensor_type;location;lat;lon;timestamp;pressure;altitude;pressure_sealevel;temperature;humidity
75045;BME280;63614;56.026;35.960;2023-08-01T00:01:36;98638.81;;;15.85;87.23
75045;BME280;63614;56.026;35.960;2023-08-01T00:04:02;98635.69;;;15.71;84.77
75045;BME280;63614;56.026;35.960;2023-08-01T00:06:28;98645.88;;;15.68;84.09
75045;BME280;63614;56.026;35.960;2023-08-01T00:08:54;98647.63;;;15.62;84.18
75045;BME280;63614;56.026;35.960;2023-08-01T00:11:20;98644.91;;;15.57;85.71
75045;BME280;63614;56.026;35.960;2023-08-01T00:13:45;98655.16;;;15.58;86.65
75045;BME280;63614;56.026;35.960;2023-08-01T00:16:11;98650.97;;;15.57;86.99
75045;BME280;63614;56.026;35.960;2023-08-01T00:18:37;98643.97;;;15.63;87.83
75045;BME280;63614;56.026;35.960;2023-08-01T00:21:03;98654.63;;;15.73;88.05
75045;BME280;63614;56.026;35.960;2023-08-01T00:23:31;98649.94;;;15.75;87.72
75045;BME280;63614;56.026;35.960;2023-08-01T00:25:57;98647.09;;;15.77;87.72
75045;BME280;63614;56.026;35.960;2023-08-01T00:28:23;98638.44;;;15.76;87.59
75045;BME280;63614;56.026;35.960;2023-08-01T00:30:50;98643.69;;;15.76;87.64
75045;BME280;63614;56.026;35.960;2023-08-01T00:33:15;98653.13;;;15.77;87.51
75045;BME280;63614;56.026;35.960;2023-08-01T00:35:42;98640.22;;;15.76;86.24
75045;BME280;63614;56.026;35.960;2023-08-01T00:38:08;98645.56;;;15.64;83.31
75045;BME280;63614;56.026;35.960;2023-08-01T00:40:34;98652.53;;;15.58;83.36
75045;BME280;63614;56.026;35.960;2023-08-01T00:43:00;98654.38;;;15.58;82.74
75045;BME280;63614;56.026;35.960;2023-08-01T00:45:26;98652.47;;;15.53;81.78
75045;BME280;63614;56.026;35.960;2023-08-01T00:47:53;98653.88;;;15.44;81.45
75045;BME280;63614;56.026;35.960;2023-08-01T00:50:20;98651.56;;;15.31;81.39
75045;BME280;63614;56.026;35.960;2023-08-01T00:52:46;98660.28;;;15.19;81.62
75045;BME280;63614;56.026;35.960;2023-08-01T00:55:13;98666.47;;;15.13;81.44
75045;BME280;63614;56.026;35.960;2023-08-01T00:57:40;98661.69;;;15.10;81.40
75045;BME280;63614;56.026;35.960;2023-08-01T01:00:06;98662.16;;;15.07;82.09
75045;BME280;63614;56.026;35.960;2023-08-01T01:02:35;98670.91;;;15.13;81.93
75045;BME280;63614;56.026;35.960;2023-08-01T01:05:02;98663.13;;;15.18;84.76
75045;BME280;63614;56.026;35.960;2023-08-01T01:07:30;98665.63;;;15.24;86.16
75045;BME280;63614;56.026;35.960;2023-08-01T01:10:00;98660.69;;;15.28;84.82
75045;BME280;63614;56.026;35.960;2023-08-01T01:12:26;98668.06;;;15.31;85.10
75045;BME280;63614;56.026;35.960;2023-08-01T01:14:52;98663.88;;;15.30;83.36
75045;BME280;63614;56.026;35.960;2023-08-01T01:17:18;98665.75;;;15.18;82.41
75045;BME280;63614;56.026;35.960;2023-08-01T01:19:44;98671.00;;;15.18;83.22
75045;BME280;63614;56.026;35.960;2023-08-01T01:22:10;98663.38;;;15.16;83.83
75045;BME280;63614;56.026;35.960;2023-08-01T01:24:39;98664.41;;;15.15;83.15
75045;BME280;63614;56.026;35.960;2023-08-01T01:27:07;98666.16;;;15.10;83.13
75045;BME280;63614;56.026;35.960;2023-08-01T01:29:35;98665.56;;;15.07;82.97
75045;BME280;63614;56.026;35.960;2023-08-01T01:32:03;98664.13;;;15.00;83.24
75045;BME280;63614;56.026;35.960;2023-08-01T01:34:29;98666.41;;;14.96;83.91
75045;BME280;63614;56.026;35.960;2023-08-01T01:36:56;98669.69;;;15.03;83.34
75045;BME280;63614;56.026;35.960;2023-08-01T01:39:22;98664.22;;;15.05;82.39
75045;BME280;63614;56.026;35.960;2023-08-01T01:41:48;98670.41;;;14.99;81.84
75045;BME280;63614;56.026;35.960;2023-08-01T01:44:14;98665.75;;;14.89;81.83
75045;BME280;63614;56.026;35.960;2023-08-01T01:46:40;98658.94;;;14.88;81.79
75045;BME280;63614;56.026;35.960;2023-08-01T01:49:07;98647.19;;;14.91;81.42
75045;BME280;63614;56.026;35.960;2023-08-01T01:51:33;98663.91;;;15.01;80.81
75045;BME280;63614;56.026;35.960;2023-08-01T01:53:59;98659.97;;;15.16;80.28
75045;BME280;63614;56.026;35.960;2023-08-01T01:56:26;98667.75;;;15.28;80.07
75045;BME280;63614;56.026;35.960;2023-08-01T01:58:52;98670.31;;;15.39;79.14
75045;BME280;63614;56.026;35.960;2023-08-01T02:01:18;98671.44;;;15.43;79.10
75045;BME280;63614;56.026;35.960;2023-08-01T02:03:44;98667.78;;;15.61;78.11
75045;BME280;63614;56.026;35.960;2023-08-01T02:06:10;98670.22;;;15.80;77.01
75045;BME280;63614;56.026;35.960;2023-08-01T02:08:36;98674.72;;;16.02;76.36
75045;BME280;63614;56.026;35.960;2023-08-01T02:11:03;98676.06;;;16.04;76.16
75045;BME280;63614;56.026;35.960;2023-08-01T02:13:31;98672.19;;;16.29;75.82
75045;BME280;63614;56.026;35.960;2023-08-01T02:15:57;98665.31;;;16.67;74.06
75045;BME280;63614;56.026;35.960;2023-08-01T02:18:23;98675.59;;;16.91;74.93
75045;BME280;63614;56.026;35.960;2023-08-01T02:20:49;98676.16;;;17.20;73.17
75045;BME280;63614;56.026;35.960;2023-08-01T02:23:16;98676.84;;;17.37;75.09
75045;BME280;63614;56.026;35.960;2023-08-01T02:25:42;98676.16;;;17.79;75.00
75045;BME280;63614;56.026;35.960;2023-08-01T02:28:08;98681.72;;;18.21;73.52
75045;BME280;63614;56.026;35.960;2023-08-01T02:30:37;98675.25;;;18.49;72.15
75045;BME280;63614;56.026;35.960;2023-08-01T02:33:03;98685.38;;;18.78;71.05
75045;BME280;63614;56.026;35.960;2023-08-01T02:35:29;98681.69;;;18.79;70.83
75045;BME280;63614;56.026;35.960;2023-08-01T02:37:55;98678.91;;;18.96;70.37
75045;BME280;63614;56.026;35.960;2023-08-01T02:40:21;98684.69;;;19.03;69.76
75045;BME280;63614;56.026;35.960;2023-08-01T02:42:48;98672.34;;;19.24;69.15
75045;BME280;63614;56.026;35.960;2023-08-01T02:45:14;98671.06;;;19.63;67.53
75045;BME280;63614;56.026;35.960;2023-08-01T02:47:41;98674.50;;;19.63;67.44
75045;BME280;63614;56.026;35.960;2023-08-01T02:50:07;98680.81;;;20.03;66.21
75045;BME280;63614;56.026;35.960;2023-08-01T02:52:33;98674.72;;;20.08;65.93
75045;BME280;63614;56.026;35.960;2023-08-01T02:55:00;98671.22;;;20.38;65.08
75045;BME280;63614;56.026;35.960;2023-08-01T02:57:27;98673.50;;;20.60;64.07
75045;BME280;63614;56.026;35.960;2023-08-01T02:59:54;98675.63;;;20.63;63.88
75045;BME280;63614;56.026;35.960;2023-08-01T03:02:20;98675.25;;;20.91;62.97
75045;BME280;63614;56.026;35.960;2023-08-01T03:04:46;98679.28;;;21.22;62.08
75045;BME280;63614;56.026;35.960;2023-08-01T03:07:13;98674.72;;;21.33;61.67
75045;BME280;63614;56.026;35.960;2023-08-01T03:09:39;98672.38;;;21.66;60.75
75045;BME280;63614;56.026;35.960;2023-08-01T03:12:04;98675.59;;;21.92;59.64
75045;BME280;63614;56.026;35.960;2023-08-01T03:14:30;98683.09;;;21.80;60.13
75045;BME280;63614;56.026;35.960;2023-08-01T03:16:58;98682.09;;;22.00;59.64
75045;BME280;63614;56.026;35.960;2023-08-01T03:19:23;98681.53;;;22.57;57.87
75045;BME280;63614;56.026;35.960;2023-08-01T03:21:50;98682.44;;;22.47;58.48
75045;BME280;63614;56.026;35.960;2023-08-01T03:24:16;98676.91;;;22.67;57.71
75045;BME280;63614;56.026;35.960;2023-08-01T03:26:42;98675.13;;;23.01;56.67
75045;BME280;63614;56.026;35.960;2023-08-01T03:29:08;98674.91;;;23.35;56.31
75045;BME280;63614;56.026;35.960;2023-08-01T03:31:34;98675.31;;;23.62;55.44
75045;BME280;63614;56.026;35.960;2023-08-01T03:34:00;98685.50;;;23.87;54.57
75045;BME280;63614;56.026;35.960;2023-08-01T03:36:27;98687.59;;;24.18;53.63
75045;BME280;63614;56.026;35.960;2023-08-01T03:38:54;98691.47;;;24.40;53.04
75045;BME280;63614;56.026;35.960;2023-08-01T03:41:20;98689.59;;;24.54;52.62
75045;BME280;63614;56.026;35.960;2023-08-01T03:43:47;98695.50;;;24.51;53.27
75045;BME280;63614;56.026;35.960;2023-08-01T03:46:13;98689.97;;;24.75;52.18
75045;BME280;63614;56.026;35.960;2023-08-01T03:48:41;98695.38;;;24.84;52.51
75045;BME280;63614;56.026;35.960;2023-08-01T03:51:09;98687.50;;;25.15;51.76
75045;BME280;63614;56.026;35.960;2023-08-01T03:53:35;98692.63;;;25.48;51.22
75045;BME280;63614;56.026;35.960;2023-08-01T03:56:02;98694.59;;;25.65;50.02
75045;BME280;63614;56.026;35.960;2023-08-01T03:58:28;98705.69;;;26.13;49.40
75045;BME280;63614;56.026;35.960;2023-08-01T04:00:54;98706.47;;;26.13;49.37
75045;BME280;63614;56.026;35.960;2023-08-01T04:03:20;98705.75;;;26.30;48.46
75045;BME280;63614;56.026;35.960;2023-08-01T04:05:47;98707.88;;;26.59;48.45
75045;BME280;63614;56.026;35.960;2023-08-01T04:08:13;98709.00;;;26.58;48.77
75045;BME280;63614;56.026;35.960;2023-08-01T04:10:39;98709.84;;;26.94;48.52
75045;BME280;63614;56.026;35.960;2023-08-01T04:13:05;98717.88;;;27.20;48.32
75045;BME280;63614;56.026;35.960;2023-08-01T04:15:30;98713.00;;;27.48;46.34
75045;BME280;63614;56.026;35.960;2023-08-01T04:17:56;98711.59;;;27.42;46.43
75045;BME280;63614;56.026;35.960;2023-08-01T04:20:22;98699.34;;;27.24;47.53
75045;BME280;63614;56.026;35.960;2023-08-01T04:22:48;98700.84;;;27.77;46.61
75045;BME280;63614;56.026;35.960;2023-08-01T04:25:14;98701.91;;;27.94;44.79
75045;BME280;63614;56.026;35.960;2023-08-01T04:27:40;98705.53;;;27.98;45.88
75045;BME280;63614;56.026;35.960;2023-08-01T04:30:06;98711.47;;;28.03;45.35
75045;BME280;63614;56.026;35.960;2023-08-01T04:32:36;98711.75;;;28.19;44.31
75045;BME280;63614;56.026;35.960;2023-08-01T04:35:03;98716.03;;;28.41;43.62
75045;BME280;63614;56.026;35.960;2023-08-01T04:37:33;98717.88;;;28.58;43.34
75045;BME280;63614;56.026;35.960;2023-08-01T04:39:59;98708.53;;;28.94;42.75
75045;BME280;63614;56.026;35.960;2023-08-01T04:42:25;98708.63;;;29.40;42.00
75045;BME280;63614;56.026;35.960;2023-08-01T04:44:51;98709.16;;;29.67;41.24
75045;BME280;63614;56.026;35.960;2023-08-01T04:47:18;98706.44;;;29.88;41.76
75045;BME280;63614;56.026;35.960;2023-08-01T04:49:45;98709.38;;;30.07;40.33
75045;BME280;63614;56.026;35.960;2023-08-01T04:52:11;98710.53;;;30.56;38.81
75045;BME280;63614;56.026;35.960;2023-08-01T04:54:37;98709.94;;;30.75;38.89
75045;BME280;63614;56.026;35.960;2023-08-01T04:57:03;98708.13;;;30.67;39.11
75045;BME280;63614;56.026;35.960;2023-08-01T04:59:29;98714.63;;;31.47;37.66
75045;BME280;63614;56.026;35.960;2023-08-01T05:01:55;98708.38;;;31.87;35.58
75045;BME280;63614;56.026;35.960;2023-08-01T05:04:20;98712.28;;;31.58;35.93
75045;BME280;63614;56.026;35.960;2023-08-01T05:06:46;98714.25;;;31.61;35.92
75045;BME280;63614;56.026;35.960;2023-08-01T05:09:12;98709.13;;;31.56;37.22
75045;BME280;63614;56.026;35.960;2023-08-01T05:11:38;98716.59;;;31.78;36.14
75045;BME280;63614;56.026;35.960;2023-08-01T05:14:03;98707.25;;;31.88;36.20
75045;BME280;63614;56.026;35.960;2023-08-01T05:16:29;98714.13;;;32.17;35.27
75045;BME280;63614;56.026;35.960;2023-08-01T05:18:55;98711.25;;;32.26;35.91
75045;BME280;63614;56.026;35.960;2023-08-01T05:21:21;98720.78;;;32.08;36.52
75045;BME280;63614;56.026;35.960;2023-08-01T05:23:47;98712.31;;;32.05;35.77
75045;BME280;63614;56.026;35.960;2023-08-01T05:26:13;98708.88;;;31.61;36.19
75045;BME280;63614;56.026;35.960;2023-08-01T05:28:38;98706.47;;;32.03;35.96
75045;BME280;63614;56.026;35.960;2023-08-01T05:31:04;98714.22;;;32.21;35.54
75045;BME280;63614;56.026;35.960;2023-08-01T05:33:30;98712.91;;;32.31;36.38
75045;BME280;63614;56.026;35.960;2023-08-01T05:35:57;98709.19;;;32.55;35.33
75045;BME280;63614;56.026;35.960;2023-08-01T05:38:22;98711.75;;;33.03;35.46
75045;BME280;63614;56.026;35.960;2023-08-01T05:40:48;98708.16;;;32.95;34.99
75045;BME280;63614;56.026;35.960;2023-08-01T05:43:14;98711.28;;;33.36;35.05
75045;BME280;63614;56.026;35.960;2023-08-01T05:45:40;98709.03;;;33.38;34.32
75045;BME280;63614;56.026;35.960;2023-08-01T05:48:06;98715.22;;;33.19;34.86
75045;BME280;63614;56.026;35.960;2023-08-01T05:50:31;98718.31;;;33.83;34.22
75045;BME280;63614;56.026;35.960;2023-08-01T05:52:57;98703.19;;;34.25;31.73
75045;BME280;63614;56.026;35.960;2023-08-01T05:55:23;98709.44;;;33.83;33.30
75045;BME280;63614;56.026;35.960;2023-08-01T05:57:49;98701.63;;;34.24;32.83
75045;BME280;63614;56.026;35.960;2023-08-01T06:00:18;98706.75;;;34.10;32.05
75045;BME280;63614;56.026;35.960;2023-08-01T06:02:48;98704.88;;;34.10;33.17
75045;BME280;63614;56.026;35.960;2023-08-01T06:05:15;98701.09;;;33.92;33.37
75045;BME280;63614;56.026;35.960;2023-08-01T06:07:41;98703.16;;;33.75;32.78
75045;BME280;63614;56.026;35.960;2023-08-01T06:10:08;98700.75;;;33.51;33.41
75045;BME280;63614;56.026;35.960;2023-08-01T06:12:35;98702.69;;;32.72;34.20
75045;BME280;63614;56.026;35.960;2023-08-01T06:15:02;98705.88;;;32.10;36.21
75045;BME280;63614;56.026;35.960;2023-08-01T06:17:33;98703.16;;;31.78;36.20
75045;BME280;63614;56.026;35.960;2023-08-01T06:19:59;98708.53;;;31.06;38.42
75045;BME280;63614;56.026;35.960;2023-08-01T06:22:24;98698.28;;;30.71;38.19
75045;BME280;63614;56.026;35.960;2023-08-01T06:24:50;98709.28;;;30.29;39.18
75045;BME280;63614;56.026;35.960;2023-08-01T06:27:16;98713.75;;;30.00;39.17
75045;BME280;63614;56.026;35.960;2023-08-01T06:29:43;98706.16;;;29.68;39.53
75045;BME280;63614;56.026;35.960;2023-08-01T06:32:09;98707.09;;;29.39;40.36
75045;BME280;63614;56.026;35.960;2023-08-01T06:34:35;98704.19;;;29.02;40.38
75045;BME280;63614;56.026;35.960;2023-08-01T06:37:01;98701.06;;;28.79;41.63
75045;BME280;63614;56.026;35.960;2023-08-01T06:39:27;98704.72;;;28.74;41.70
75045;BME280;63614;56.026;35.960;2023-08-01T06:41:53;98699.44;;;28.57;42.54
75045;BME280;63614;56.026;35.960;2023-08-01T06:44:19;98704.25;;;28.42;42.05
75045;BME280;63614;56.026;35.960;2023-08-01T06:46:44;98707.00;;;28.25;42.86
75045;BME280;63614;56.026;35.960;2023-08-01T06:49:10;98706.31;;;27.98;42.58
75045;BME280;63614;56.026;35.960;2023-08-01T06:51:36;98703.81;;;28.02;43.90
75045;BME280;63614;56.026;35.960;2023-08-01T06:54:01;98704.63;;;27.85;44.41
75045;BME280;63614;56.026;35.960;2023-08-01T06:56:27;98706.19;;;27.95;44.59
75045;BME280;63614;56.026;35.960;2023-08-01T06:58:53;98711.38;;;27.82;45.25
75045;BME280;63614;56.026;35.960;2023-08-01T07:01:19;98717.38;;;27.70;45.82
75045;BME280;63614;56.026;35.960;2023-08-01T07:03:45;98708.44;;;27.58;44.84
75045;BME280;63614;56.026;35.960;2023-08-01T07:06:11;98714.72;;;27.70;45.44
75045;BME280;63614;56.026;35.960;2023-08-01T07:08:37;98708.41;;;27.66;44.98
75045;BME280;63614;56.026;35.960;2023-08-01T07:11:02;98711.69;;;27.81;44.05
75045;BME280;63614;56.026;35.960;2023-08-01T07:13:28;98710.63;;;27.64;44.20
75045;BME280;63614;56.026;35.960;2023-08-01T07:15:54;98709.81;;;27.72;45.05
75045;BME280;63614;56.026;35.960;2023-08-01T07:18:20;98711.72;;;27.63;44.69
75045;BME280;63614;56.026;35.960;2023-08-01T07:20:46;98707.34;;;27.41;45.15
75045;BME280;63614;56.026;35.960;2023-08-01T07:23:12;98707.50;;;27.62;45.36
75045;BME280;63614;56.026;35.960;2023-08-01T07:25:38;98715.16;;;27.72;44.30
75045;BME280;63614;56.026;35.960;2023-08-01T07:28:04;98708.59;;;27.61;44.90
75045;BME280;63614;56.026;35.960;2023-08-01T07:30:30;98709.84;;;27.55;44.12
75045;BME280;63614;56.026;35.960;2023-08-01T07:32:56;98712.25;;;27.48;45.19
75045;BME280;63614;56.026;35.960;2023-08-01T07:35:21;98710.81;;;27.24;44.97
75045;BME280;63614;56.026;35.960;2023-08-01T07:37:47;98700.63;;;27.35;44.51
75045;BME280;63614;56.026;35.960;2023-08-01T07:40:13;98707.81;;;27.52;45.65
75045;BME280;63614;56.026;35.960;2023-08-01T07:42:39;98710.63;;;27.64;43.82
75045;BME280;63614;56.026;35.960;2023-08-01T07:45:05;98708.88;;;27.86;44.09
75045;BME280;63614;56.026;35.960;2023-08-01T07:47:33;98716.94;;;27.51;43.88
75045;BME280;63614;56.026;35.960;2023-08-01T07:49:59;98705.94;;;27.52;44.55
75045;BME280;63614;56.026;35.960;2023-08-01T07:52:25;98700.75;;;27.21;44.38
75045;BME280;63614;56.026;35.960;2023-08-01T07:54:50;98707.19;;;27.20;45.65
75045;BME280;63614;56.026;35.960;2023-08-01T07:57:18;98704.38;;;27.51;44.97
75045;BME280;63614;56.026;35.960;2023-08-01T07:59:44;98697.91;;;27.70;44.83
75045;BME280;63614;56.026;35.960;2023-08-01T08:02:10;98697.94;;;27.44;45.55
75045;BME280;63614;56.026;35.960;2023-08-01T08:04:36;98697.31;;;27.56;44.61
75045;BME280;63614;56.026;35.960;2023-08-01T08:07:01;98704.06;;;27.44;44.82
75045;BME280;63614;56.026;35.960;2023-08-01T08:09:27;98705.97;;;27.35;45.62
75045;BME280;63614;56.026;35.960;2023-08-01T08:11:53;98705.94;;;27.17;44.83
75045;BME280;63614;56.026;35.960;2023-08-01T08:14:19;98699.66;;;27.48;45.66
75045;BME280;63614;56.026;35.960;2023-08-01T08:16:47;98695.72;;;27.54;44.11
75045;BME280;63614;56.026;35.960;2023-08-01T08:19:14;98694.94;;;27.54;43.88
75045;BME280;63614;56.026;35.960;2023-08-01T08:21:40;98701.66;;;27.60;43.93
75045;BME280;63614;56.026;35.960;2023-08-01T08:24:06;98709.25;;;27.49;43.46
75045;BME280;63614;56.026;35.960;2023-08-01T08:26:33;98699.31;;;27.59;43.75
75045;BME280;63614;56.026;35.960;2023-08-01T08:29:03;98706.91;;;27.48;43.29
75045;BME280;63614;56.026;35.960;2023-08-01T08:31:32;98704.53;;;27.55;43.96
75045;BME280;63614;56.026;35.960;2023-08-01T08:33:58;98703.56;;;27.68;42.99
75045;BME280;63614;56.026;35.960;2023-08-01T08:36:23;98704.19;;;27.65;43.54
75045;BME280;63614;56.026;35.960;2023-08-01T08:38:49;98704.78;;;27.80;42.83
75045;BME280;63614;56.026;35.960;2023-08-01T08:41:21;98710.59;;;27.82;44.15
75045;BME280;63614;56.026;35.960;2023-08-01T08:43:48;98713.00;;;27.66;42.79
75045;BME280;63614;56.026;35.960;2023-08-01T08:46:15;98707.34;;;27.67;41.60
75045;BME280;63614;56.026;35.960;2023-08-01T08:48:42;98707.59;;;27.83;42.36
75045;BME280;63614;56.026;35.960;2023-08-01T08:51:10;98692.97;;;27.98;41.84
75045;BME280;63614;56.026;35.960;2023-08-01T08:53:37;98699.06;;;28.07;43.29
75045;BME280;63614;56.026;35.960;2023-08-01T08:56:04;98697.66;;;28.10;42.93
75045;BME280;63614;56.026;35.960;2023-08-01T08:58:33;98701.47;;;27.83;42.59
75045;BME280;63614;56.026;35.960;2023-08-01T09:01:03;98709.56;;;27.48;43.47
75045;BME280;63614;56.026;35.960;2023-08-01T09:03:29;98709.38;;;27.27;43.96
75045;BME280;63614;56.026;35.960;2023-08-01T09:06:02;98707.22;;;27.46;43.21
75045;BME280;63614;56.026;35.960;2023-08-01T09:08:32;98700.44;;;27.58;42.67
75045;BME280;63614;56.026;35.960;2023-08-01T09:11:00;98708.63;;;27.52;43.89
75045;BME280;63614;56.026;35.960;2023-08-01T09:13:26;98712.81;;;27.80;43.72
75045;BME280;63614;56.026;35.960;2023-08-01T09:15:52;98710.28;;;27.83;44.09
75045;BME280;63614;56.026;35.960;2023-08-01T09:18:18;98702.44;;;27.78;43.41
75045;BME280;63614;56.026;35.960;2023-08-01T09:20:47;98702.53;;;27.90;42.70
75045;BME280;63614;56.026;35.960;2023-08-01T09:23:13;98692.31;;;28.01;42.38
75045;BME280;63614;56.026;35.960;2023-08-01T09:25:40;98696.44;;;27.99;43.04
75045;BME280;63614;56.026;35.960;2023-08-01T09:30:47;98689.41;;;27.77;43.41
75045;BME280;63614;56.026;35.960;2023-08-01T09:33:13;98691.75;;;27.78;42.88
75045;BME280;63614;56.026;35.960;2023-08-01T09:35:39;98692.72;;;27.65;43.38
75045;BME280;63614;56.026;35.960;2023-08-01T09:38:05;98694.66;;;27.21;45.63
75045;BME280;63614;56.026;35.960;2023-08-01T09:40:37;98694.78;;;27.07;45.72
75045;BME280;63614;56.026;35.960;2023-08-01T09:43:04;98693.69;;;26.99;44.71
75045;BME280;63614;56.026;35.960;2023-08-01T09:45:30;98681.59;;;27.19;44.00
75045;BME280;63614;56.026;35.960;2023-08-01T09:47:55;98680.81;;;27.27;44.21
75045;BME280;63614;56.026;35.960;2023-08-01T09:50:23;98680.34;;;27.43;42.23
75045;BME280;63614;56.026;35.960;2023-08-01T09:52:49;98684.22;;;27.71;44.29
75045;BME280;63614;56.026;35.960;2023-08-01T09:57:53;98679.16;;;27.87;41.43
75045;BME280;63614;56.026;35.960;2023-08-01T10:00:22;98677.91;;;27.85;41.64
75045;BME280;63614;56.026;35.960;2023-08-01T10:02:49;98679.84;;;27.58;43.61
75045;BME280;63614;56.026;35.960;2023-08-01T10:05:19;98683.94;;;27.29;44.11
75045;BME280;63614;56.026;35.960;2023-08-01T10:07:45;98677.81;;;27.29;43.33
75045;BME280;63614;56.026;35.960;2023-08-01T10:10:13;98677.53;;;27.30;45.14
75045;BME280;63614;56.026;35.960;2023-08-01T10:12:45;98679.72;;;27.37;44.42
75045;BME280;63614;56.026;35.960;2023-08-01T10:15:11;98676.56;;;27.44;43.26
75045;BME280;63614;56.026;35.960;2023-08-01T10:17:37;98674.38;;;27.46;44.19
75045;BME280;63614;56.026;35.960;2023-08-01T10:20:04;98675.78;;;27.43;42.82
75045;BME280;63614;56.026;35.960;2023-08-01T10:22:31;98667.63;;;27.48;42.09
75045;BME280;63614;56.026;35.960;2023-08-01T10:24:57;98675.47;;;27.45;42.02
75045;BME280;63614;56.026;35.960;2023-08-01T10:27:24;98671.09;;;27.31;43.81
75045;BME280;63614;56.026;35.960;2023-08-01T10:29:57;98672.03;;;27.35;43.01
75045;BME280;63614;56.026;35.960;2023-08-01T10:32:37;98667.66;;;27.40;43.17
75045;BME280;63614;56.026;35.960;2023-08-01T10:35:04;98669.03;;;27.46;44.12
75045;BME280;63614;56.026;35.960;2023-08-01T10:37:43;98661.19;;;27.49;42.08
75045;BME280;63614;56.026;35.960;2023-08-01T10:40:11;98661.47;;;27.57;42.27
75045;BME280;63614;56.026;35.960;2023-08-01T10:42:38;98658.28;;;27.72;42.20
75045;BME280;63614;56.026;35.960;2023-08-01T10:45:04;98658.88;;;27.78;43.12
75045;BME280;63614;56.026;35.960;2023-08-01T10:47:30;98654.03;;;27.80;42.60
75045;BME280;63614;56.026;35.960;2023-08-01T10:49:57;98657.34;;;27.77;41.05
75045;BME280;63614;56.026;35.960;2023-08-01T10:52:26;98648.72;;;27.62;40.77
75045;BME280;63614;56.026;35.960;2023-08-01T10:57:23;98656.16;;;27.48;42.17
75045;BME280;63614;56.026;35.960;2023-08-01T10:59:49;98651.59;;;27.48;41.24
75045;BME280;63614;56.026;35.960;2023-08-01T11:02:23;98647.53;;;27.33;41.57
75045;BME280;63614;56.026;35.960;2023-08-01T11:04:59;98642.84;;;27.30;42.55
75045;BME280;63614;56.026;35.960;2023-08-01T11:07:25;98650.38;;;27.02;44.21
75045;BME280;63614;56.026;35.960;2023-08-01T11:12:39;98645.34;;;26.92;42.60
75045;BME280;63614;56.026;35.960;2023-08-01T11:15:07;98646.91;;;27.02;41.76
75045;BME280;63614;56.026;35.960;2023-08-01T11:17:39;98640.16;;;27.13;42.65
75045;BME280;63614;56.026;35.960;2023-08-01T11:20:07;98643.75;;;27.17;42.67
75045;BME280;63614;56.026;35.960;2023-08-01T11:22:37;98640.00;;;27.18;42.67
75045;BME280;63614;56.026;35.960;2023-08-01T11:25:04;98637.94;;;27.24;42.34
75045;BME280;63614;56.026;35.960;2023-08-01T11:27:31;98630.72;;;27.24;41.05
75045;BME280;63614;56.026;35.960;2023-08-01T11:29:57;98635.91;;;27.21;42.23
75045;BME280;63614;56.026;35.960;2023-08-01T11:32:33;98634.97;;;27.16;40.22
75045;BME280;63614;56.026;35.960;2023-08-01T11:35:00;98632.13;;;27.22;41.34
75045;BME280;63614;56.026;35.960;2023-08-01T11:37:26;98633.88;;;27.17;40.73
75045;BME280;63614;56.026;35.960;2023-08-01T11:39:52;98629.63;;;27.16;41.17
75045;BME280;63614;56.026;35.960;2023-08-01T11:42:18;98632.63;;;27.06;41.66
75045;BME280;63614;56.026;35.960;2023-08-01T11:44:44;98623.03;;;27.14;41.31
75045;BME280;63614;56.026;35.960;2023-08-01T11:47:15;98611.88;;;27.21;42.14
75045;BME280;63614;56.026;35.960;2023-08-01T11:49:49;98614.25;;;27.22;41.40
75045;BME280;63614;56.026;35.960;2023-08-01T11:52:25;98603.06;;;27.20;42.05
75045;BME280;63614;56.026;35.960;2023-08-01T11:54:51;98614.09;;;27.10;41.50
75045;BME280;63614;56.026;35.960;2023-08-01T11:57:17;98607.69;;;26.93;42.03
75045;BME280;63614;56.026;35.960;2023-08-01T11:59:50;98602.00;;;26.95;42.04
75045;BME280;63614;56.026;35.960;2023-08-01T12:02:27;98595.09;;;27.03;44.86
75045;BME280;63614;56.026;35.960;2023-08-01T12:04:55;98598.84;;;27.10;43.65
75045;BME280;63614;56.026;35.960;2023-08-01T12:07:25;98599.19;;;27.00;41.36
75045;BME280;63614;56.026;35.960;2023-08-01T12:09:56;98601.22;;;26.77;41.76
75045;BME280;63614;56.026;35.960;2023-08-01T12:12:22;98602.78;;;26.87;41.77
75045;BME280;63614;56.026;35.960;2023-08-01T12:14:48;98600.31;;;26.90;43.06
75045;BME280;63614;56.026;35.960;2023-08-01T12:17:13;98600.31;;;26.90;42.30
75045;BME280;63614;56.026;35.960;2023-08-01T12:19:39;98599.97;;;26.83;42.46
75045;BME280;63614;56.026;35.960;2023-08-01T12:22:05;98603.75;;;26.91;41.53
75045;BME280;63614;56.026;35.960;2023-08-01T12:24:31;98599.03;;;26.88;42.10
75045;BME280;63614;56.026;35.960;2023-08-01T12:26:58;98594.97;;;26.90;42.82
75045;BME280;63614;56.026;35.960;2023-08-01T12:29:24;98598.88;;;26.93;41.63
75045;BME280;63614;56.026;35.960;2023-08-01T12:31:50;98599.69;;;26.93;41.50
75045;BME280;63614;56.026;35.960;2023-08-01T12:34:16;98594.66;;;26.92;41.44
75045;BME280;63614;56.026;35.960;2023-08-01T12:36:41;98596.66;;;26.95;41.67
75045;BME280;63614;56.026;35.960;2023-08-01T12:39:07;98597.63;;;26.90;40.95
75045;BME280;63614;56.026;35.960;2023-08-01T12:41:37;98597.94;;;26.97;41.93
75045;BME280;63614;56.026;35.960;2023-08-01T12:44:04;98602.19;;;26.98;42.07
75045;BME280;63614;56.026;35.960;2023-08-01T12:46:30;98589.00;;;26.93;41.28
75045;BME280;63614;56.026;35.960;2023-08-01T12:48:56;98593.38;;;26.98;41.48
75045;BME280;63614;56.026;35.960;2023-08-01T12:51:22;98588.84;;;26.98;42.18
75045;BME280;63614;56.026;35.960;2023-08-01T12:53:48;98588.66;;;27.04;44.79
75045;BME280;63614;56.026;35.960;2023-08-01T12:56:14;98588.94;;;27.11;42.56
75045;BME280;63614;56.026;35.960;2023-08-01T12:58:40;98577.50;;;27.10;41.88